Time;durP1;ratioP1;P1;durP2;ratioP2;P2;SDS_P1;SDS_P2;PMS_P1;PMS_P2;Temp;Humidity;BMP_temperature;BMP_pressure;BME280_temperature;BME280_humidity;BME280_pressure;Samples;Min_cycle;Max_cycle;Signal;HPM_P1;HPM_P2
2022/12/10 00:01:10;;;;;;;18.05;8.55;;;-1.40;99.90;;;;;;5038269;28;20055;-81
2022/12/10 00:03:36;;;;;;;24.88;9.80;;;-1.40;99.90;;;;;;5037871;28;20045;-81
2022/12/10 00:06:03;;;;;;;23.75;10.82;;;-1.40;99.90;;;;;;5038904;28;20045;-81
2022/12/10 00:08:29;;;;;;;18.52;10.10;;;-1.40;99.90;;;;;;5055155;28;20047;-81
2022/12/10 00:10:55;;;;;;;21.80;10.60;;;-1.40;99.90;;;;;;5054936;28;20033;-81
2022/12/10 00:13:20;;;;;;;20.55;10.38;;;-1.40;99.90;;;;;;5055096;28;20048;-81
2022/12/10 00:15:46;;;;;;;21.77;10.80;;;-1.30;99.90;;;;;;5055057;28;20106;-81
2022/12/10 00:18:12;;;;;;;21.15;10.35;;;-1.30;99.90;;;;;;5054953;28;20052;-81
2022/12/10 00:20:37;;;;;;;16.58;8.60;;;-1.30;99.90;;;;;;5038049;28;20041;-81
2022/12/10 00:23:03;;;;;;;23.00;10.98;;;-1.30;99.90;;;;;;5054441;28;20044;-81
2022/12/10 00:25:29;;;;;;;20.60;9.75;;;-1.20;99.90;;;;;;5037420;28;20044;-81
2022/12/10 00:27:55;;;;;;;24.50;10.30;;;-1.20;99.90;;;;;;5037613;28;20041;-81
2022/12/10 00:30:20;;;;;;;22.45;10.60;;;-1.20;99.90;;;;;;5053796;28;20511;-80
2022/12/10 00:32:46;;;;;;;26.40;11.95;;;-1.20;99.90;;;;;;5037028;28;20041;-82
2022/12/10 00:35:12;;;;;;;23.40;11.23;;;-1.10;99.90;;;;;;5037389;28;20434;-81
2022/12/10 00:37:37;;;;;;;20.52;10.27;;;-1.10;99.90;;;;;;5053920;28;20095;-81
2022/12/10 00:40:04;;;;;;;17.23;9.68;;;-1.20;99.90;;;;;;5037456;28;20041;-81
2022/12/10 00:42:30;;;;;;;23.13;9.30;;;-1.10;99.90;;;;;;5037290;28;20037;-81
2022/12/10 00:44:55;;;;;;;25.13;12.07;;;-1.00;99.90;;;;;;5037200;28;20483;-81
2022/12/10 00:47:21;;;;;;;23.63;10.55;;;-1.00;99.90;;;;;;5053471;28;20110;-81
2022/12/10 00:49:47;;;;;;;17.63;9.77;;;-1.00;99.90;;;;;;5037175;28;20043;-81
2022/12/10 00:52:12;;;;;;;22.25;11.05;;;-1.00;99.90;;;;;;5036942;28;20484;-82
2022/12/10 00:54:38;;;;;;;15.18;9.60;;;-0.90;99.90;;;;;;5037581;28;20048;-82
2022/12/10 00:57:03;;;;;;;16.05;9.32;;;-0.90;99.90;;;;;;5053530;28;20060;-81
2022/12/10 00:59:29;;;;;;;24.90;11.27;;;-0.90;99.90;;;;;;5036966;28;20131;-81
2022/12/10 01:01:54;;;;;;;17.50;9.68;;;-0.90;99.90;;;;;;5037113;28;20127;-81
2022/12/10 01:04:20;;;;;;;28.70;11.23;;;-0.90;99.90;;;;;;5036730;28;20044;-81
2022/12/10 01:06:48;;;;;;;22.92;10.15;;;-0.90;99.90;;;;;;5053315;28;20064;-80
2022/12/10 01:09:17;;;;;;;23.50;11.18;;;-0.90;99.90;;;;;;5053547;28;20127;-81
2022/12/10 01:11:44;;;;;;;24.38;10.02;;;-0.90;99.90;;;;;;5053665;28;20087;-81
2022/12/10 01:14:13;;;;;;;20.70;11.10;;;-0.90;99.90;;;;;;5053248;28;20127;-81
2022/12/10 01:16:39;;;;;;;22.45;10.88;;;-0.90;99.90;;;;;;5036834;28;20047;-81
2022/12/10 01:19:06;;;;;;;22.45;11.30;;;-0.80;99.90;;;;;;5052982;28;20132;-81
2022/12/10 01:21:31;;;;;;;22.08;10.68;;;-0.90;99.90;;;;;;5036847;28;20043;-81
2022/12/10 01:23:58;;;;;;;22.48;10.30;;;-0.90;99.90;;;;;;5037062;28;20495;-81
2022/12/10 01:26:26;;;;;;;21.05;10.25;;;-1.00;99.90;;;;;;5053110;28;20463;-81
2022/12/10 01:28:53;;;;;;;22.77;11.68;;;-0.90;99.90;;;;;;5052933;28;20049;-80
2022/12/10 01:31:24;;;;;;;20.10;10.82;;;-0.90;99.90;;;;;;5053088;28;20525;-81
2022/12/10 01:33:50;;;;;;;22.63;10.45;;;-1.00;99.90;;;;;;5036807;28;20048;-80
2022/12/10 01:36:17;;;;;;;19.33;10.13;;;-1.00;99.90;;;;;;5036043;28;20041;-80
2022/12/10 01:38:43;;;;;;;24.83;10.85;;;-1.00;99.90;;;;;;5036291;28;20062;-81
2022/12/10 01:41:16;;;;;;;21.42;10.07;;;-1.00;99.90;;;;;;5036135;28;20037;-80
2022/12/10 01:44:01;;;;;;;22.13;10.00;;;-1.00;99.90;;;;;;5053173;28;20072;-80
2022/12/10 01:46:29;;;;;;;26.00;11.32;;;-1.10;99.90;;;;;;5036750;28;20033;-81
2022/12/10 01:48:55;;;;;;;22.75;12.23;;;-1.00;99.90;;;;;;5036243;28;20045;-80
2022/12/10 01:51:23;;;;;;;22.23;11.18;;;-1.10;99.90;;;;;;5036212;28;20041;-79
2022/12/10 01:53:49;;;;;;;16.60;10.82;;;-1.10;99.90;;;;;;5052449;28;20044;-81
2022/12/10 01:56:17;;;;;;;27.95;11.15;;;-1.10;99.90;;;;;;5035571;28;20036;-80
2022/12/10 01:58:44;;;;;;;27.08;12.40;;;-1.10;99.90;;;;;;5035916;28;20037;-81
2022/12/10 02:01:40;;;;;;;27.60;11.60;;;-0.90;99.90;;;;;;5035975;28;20040;-81
2022/12/10 02:04:29;;;;;;;28.75;12.07;;;-1.00;99.90;;;;;;5035826;28;20127;-80
2022/12/10 02:07:09;;;;;;;25.02;12.57;;;-1.10;99.90;;;;;;5052127;28;20048;-80
2022/12/10 02:09:45;;;;;;;23.05;10.48;;;-1.10;99.90;;;;;;5052641;28;20053;-81
2022/12/10 02:12:40;;;;;;;34.03;11.15;;;-1.10;99.90;;;;;;5052336;28;20041;-80
2022/12/10 02:15:14;;;;;;;27.48;13.63;;;-1.10;99.90;;;;;;5036117;28;20032;-81
2022/12/10 02:17:46;;;;;;;29.65;12.43;;;-1.10;99.90;;;;;;5052254;28;20059;-80
2022/12/10 02:20:20;;;;;;;;;;;-1.10;99.90;;;;;;5052542;28;20403;-79
2022/12/10 02:23:04;;;;;;;30.20;13.02;;;-1.10;99.90;;;;;;5052301;28;19970;-81
2022/12/10 02:25:49;;;;;;;23.85;11.18;;;-1.20;99.90;;;;;;5035662;28;20083;-81
2022/12/10 02:28:34;;;;;;;20.38;11.50;;;-1.20;99.90;;;;;;5038767;28;20033;-81
2022/12/10 02:31:00;;;;;;;28.88;14.23;;;-1.20;99.90;;;;;;5056114;28;20081;-80
2022/12/10 02:33:29;;;;;;;34.85;14.32;;;-1.20;99.90;;;;;;5040288;28;20041;-80
2022/12/10 02:35:58;;;;;;;25.95;11.60;;;-1.30;99.90;;;;;;5039940;28;20041;-81
2022/12/10 02:38:28;;;;;;;28.83;11.77;;;-1.30;99.90;;;;;;5056312;28;20139;-80
2022/12/10 02:41:04;;;;;;;24.50;12.38;;;-1.30;99.90;;;;;;5039648;28;20037;-80
2022/12/10 02:43:31;;;;;;;29.30;13.32;;;-1.30;99.90;;;;;;5055753;28;20087;-80
2022/12/10 02:45:58;;;;;;;28.33;12.57;;;-1.30;99.90;;;;;;5056610;28;20080;-80
2022/12/10 02:48:24;;;;;;;32.97;14.85;;;-1.30;99.90;;;;;;5056192;28;20049;-80
2022/12/10 02:50:50;;;;;;;20.85;12.20;;;-1.40;99.90;;;;;;5039197;28;20063;-81
2022/12/10 02:53:16;;;;;;;22.13;11.32;;;0.20;99.90;;;;;;5056249;28;20037;-81
2022/12/10 02:56:27;;;;;;;26.45;9.90;;;-1.40;99.90;;;;;;5056271;28;20037;-80
2022/12/10 02:59:14;;;;;;;21.07;12.97;;;-1.40;99.90;;;;;;4986032;28;20049;-81
2022/12/10 03:04:32;;;;;;;29.60;12.50;;;-1.40;99.90;;;;;;5101076;22;20461;-78
2022/12/10 03:07:02;;;;;;;23.60;11.80;;;-1.40;99.90;;;;;;5095277;28;20136;-78
2022/12/10 03:09:39;;;;;;;33.30;14.95;;;-1.40;99.90;;;;;;5095638;28;20481;-78
2022/12/10 03:12:19;;;;;;;30.05;12.68;;;-1.40;99.90;;;;;;5095276;28;20040;-78
2022/12/10 03:14:45;;;;;;;26.40;12.00;;;-1.40;99.90;;;;;;5078130;28;20090;-78
2022/12/10 03:17:13;;;;;;;29.90;12.50;;;-1.50;99.90;;;;;;5078216;28;20040;-78
2022/12/10 03:19:48;;;;;;;23.20;13.35;;;-1.50;99.90;;;;;;5112018;28;20093;-78
2022/12/10 03:22:17;;;;;;;22.35;12.55;;;-1.50;99.90;;;;;;5112270;28;20539;-78
2022/12/10 03:24:43;;;;;;;25.27;12.73;;;-1.60;99.90;;;;;;5112216;28;20131;-78
2022/12/10 03:27:12;;;;;;;28.33;13.90;;;-1.50;99.90;;;;;;5077996;28;20487;-78
2022/12/10 03:29:43;;;;;;;25.88;13.38;;;-1.60;99.90;;;;;;5095170;28;20028;-78
2022/12/10 03:32:10;;;;;;;22.88;11.60;;;-1.60;99.90;;;;;;5078118;28;20032;-78
2022/12/10 03:34:37;;;;;;;21.65;11.20;;;-1.60;99.90;;;;;;5094908;28;20236;-78
2022/12/10 03:37:04;;;;;;;28.08;11.82;;;-1.60;99.90;;;;;;5111738;28;20127;-78
2022/12/10 03:39:31;;;;;;;25.83;11.70;;;-1.60;99.90;;;;;;5078063;28;20048;-78
2022/12/10 03:41:56;;;;;;;24.35;13.23;;;-1.60;99.90;;;;;;5094688;28;20118;-78
2022/12/10 03:44:31;;;;;;;29.40;13.70;;;-1.70;99.90;;;;;;5111653;28;20542;-78
2022/12/10 03:46:57;;;;;;;22.63;11.35;;;-1.70;99.90;;;;;;5111538;28;20388;-78
2022/12/10 03:49:23;;;;;;;21.52;11.05;;;-1.70;99.90;;;;;;5077536;28;20053;-78
2022/12/10 03:51:48;;;;;;;29.60;12.93;;;-1.80;99.90;;;;;;5111426;28;20492;-78
2022/12/10 03:54:14;;;;;;;20.00;11.77;;;-1.80;99.90;;;;;;5111319;28;20063;-78
2022/12/10 03:56:40;;;;;;;27.90;12.80;;;-1.80;99.90;;;;;;5111253;28;20122;-78
2022/12/10 03:59:05;;;;;;;25.92;12.73;;;-1.80;99.90;;;;;;5094487;28;20551;-78
2022/12/10 04:01:31;;;;;;;24.02;12.25;;;-1.90;99.90;;;;;;5111368;28;20040;-78
2022/12/10 04:03:56;;;;;;;25.65;12.77;;;-1.90;99.90;;;;;;5077251;28;20056;-78
2022/12/10 04:06:22;;;;;;;29.67;12.07;;;-1.90;99.90;;;;;;5111064;28;20509;-78
2022/12/10 04:08:48;;;;;;;27.17;11.77;;;-1.90;99.90;;;;;;5077117;28;20040;-78
2022/12/10 04:11:15;;;;;;;29.52;13.23;;;-1.90;99.90;;;;;;5111582;28;20376;-78
2022/12/10 04:16:29;;;;;;;32.40;13.48;;;-2.00;99.90;;;;;;5111221;28;20036;-78
2022/12/10 04:19:03;;;;;;;21.38;11.90;;;-2.00;99.90;;;;;;5111176;28;20046;-78
2022/12/10 04:27:08;;;;;;;21.98;9.68;;;-2.00;99.90;;;;;;5110731;28;20040;-78
2022/12/10 04:29:33;;;;;;;36.88;12.50;;;-2.00;99.90;;;;;;5093719;28;20044;-78
2022/12/10 04:31:59;;;;;;;21.40;12.30;;;-2.10;99.90;;;;;;5093740;28;20123;-78
2022/12/10 04:34:25;;;;;;;28.63;13.65;;;-2.10;99.90;;;;;;5093714;28;20040;-78
2022/12/10 04:36:51;;;;;;;24.20;12.07;;;-2.40;99.90;;;;;;5110569;28;20499;-78
2022/12/10 04:39:17;;;;;;;24.17;11.35;;;-2.10;99.90;;;;;;5110465;28;20083;-77
2022/12/10 04:41:45;;;;;;;26.50;13.93;;;-2.10;99.90;;;;;;5110926;28;20043;-78
2022/12/10 04:44:11;;;;;;;25.15;12.23;;;-2.10;99.90;;;;;;5076384;28;20124;-77
2022/12/10 04:46:37;;;;;;;20.90;11.02;;;-2.00;99.90;;;;;;5076834;28;20044;-78
2022/12/10 04:49:04;;;;;;;25.00;11.85;;;-2.10;99.90;;;;;;5110216;28;20042;-78
2022/12/10 04:51:30;;;;;;;27.08;12.90;;;-2.10;99.90;;;;;;5110096;28;20068;-78
2022/12/10 04:53:55;;;;;;;36.53;14.75;;;-2.10;99.90;;;;;;5093113;28;20487;-78
2022/12/10 04:56:21;;;;;;;29.58;13.73;;;-2.10;99.90;;;;;;5110284;28;20089;-78
2022/12/10 04:58:47;;;;;;;35.85;14.40;;;-2.10;99.90;;;;;;5076403;28;20070;-78
2022/12/10 05:01:12;;;;;;;27.08;12.63;;;-2.10;99.90;;;;;;5076137;28;20051;-78
2022/12/10 05:03:38;;;;;;;26.10;13.15;;;-2.10;99.90;;;;;;5092812;28;20055;-78
2022/12/10 05:06:07;;;;;;;35.88;14.98;;;-2.20;99.90;;;;;;5109929;28;20040;-77
2022/12/10 05:08:34;;;;;;;30.48;12.90;;;-2.20;99.90;;;;;;5092732;28;20053;-78
2022/12/10 05:11:01;;;;;;;31.67;12.73;;;-2.20;99.90;;;;;;5092756;28;20129;-77
2022/12/10 05:13:27;;;;;;;32.65;15.02;;;-2.20;99.90;;;;;;5076165;28;20036;-78
2022/12/10 05:15:53;;;;;;;25.52;12.20;;;-2.20;99.90;;;;;;5109812;28;20040;-78
2022/12/10 05:18:19;;;;;;;22.10;13.13;;;-2.20;99.90;;;;;;5092656;28;20058;-78
2022/12/10 05:20:44;;;;;;;25.05;13.48;;;-0.90;99.90;;;;;;5109911;28;20050;-77
2022/12/10 05:23:28;;;;;;;33.05;13.95;;;-2.30;99.90;;;;;;5075760;28;20035;-77
2022/12/10 05:26:23;;;;;;;28.77;14.23;;;-2.30;99.90;;;;;;5109622;28;20388;-77
2022/12/10 05:28:52;;;;;;;21.88;11.38;;;-2.30;99.90;;;;;;5083618;28;20138;-78
2022/12/10 05:31:21;;;;;;;27.85;13.70;;;-2.30;99.90;;;;;;5075613;28;20144;-77
2022/12/10 05:33:48;;;;;;;25.52;13.23;;;-2.40;99.90;;;;;;5092354;28;20067;-77
2022/12/10 05:36:17;;;;;;;29.90;13.68;;;-2.40;99.90;;;;;;5109224;28;20036;-78
2022/12/10 05:38:43;;;;;;;28.77;12.68;;;-2.40;99.90;;;;;;5092381;28;20043;-77
2022/12/10 05:41:15;;;;;;;34.20;15.98;;;-2.40;99.90;;;;;;5092594;28;20036;-78
2022/12/10 05:43:42;;;;;;;23.65;12.45;;;-2.40;99.90;;;;;;5075596;28;20123;-78
2022/12/10 05:46:11;;;;;;;25.42;13.18;;;-2.40;99.90;;;;;;5109128;28;20040;-77
2022/12/10 05:48:37;;;;;;;30.30;13.32;;;-2.40;99.90;;;;;;5075349;28;20096;-77
2022/12/10 05:51:08;;;;;;;29.17;12.95;;;-2.40;99.90;;;;;;5092121;28;20036;-78
2022/12/10 05:53:34;;;;;;;25.52;12.98;;;-2.40;99.90;;;;;;5092512;28;20032;-77
2022/12/10 05:56:02;;;;;;;36.10;14.73;;;-2.50;99.90;;;;;;5092469;28;20079;-77
2022/12/10 05:58:29;;;;;;;26.35;14.25;;;-2.50;99.90;;;;;;5109358;28;20078;-77
2022/12/10 06:00:55;;;;;;;37.53;14.02;;;-2.40;99.90;;;;;;5109036;28;20052;-77
2022/12/10 06:03:21;;;;;;;28.10;13.40;;;-2.40;99.90;;;;;;5108511;28;20414;-77
2022/12/10 06:05:47;;;;;;;26.70;11.52;;;-2.40;99.90;;;;;;5108833;28;20048;-77
2022/12/10 06:08:12;;;;;;;31.45;14.20;;;-2.40;99.90;;;;;;5075238;28;20449;-77
2022/12/10 06:10:38;;;;;;;28.10;13.50;;;-2.50;99.90;;;;;;5108964;28;20075;-77
2022/12/10 06:13:04;;;;;;;33.03;13.90;;;-2.50;99.90;;;;;;5108958;28;20038;-77
2022/12/10 06:15:30;;;;;;;29.92;12.60;;;-2.50;99.90;;;;;;5075320;28;20044;-77
2022/12/10 06:17:56;;;;;;;31.73;13.20;;;-2.40;99.90;;;;;;5074918;28;20036;-78
2022/12/10 06:20:23;;;;;;;24.48;12.82;;;-2.40;99.90;;;;;;5109245;28;20517;-77
2022/12/10 06:22:48;;;;;;;24.10;12.80;;;-2.40;99.90;;;;;;5075079;28;20085;-77
2022/12/10 06:25:14;;;;;;;25.05;12.07;;;-2.40;99.90;;;;;;5108850;28;20450;-77
2022/12/10 06:27:40;;;;;;;31.08;14.02;;;-2.40;99.90;;;;;;5092016;28;20040;-77
2022/12/10 06:30:06;;;;;;;22.13;11.95;;;-2.40;99.90;;;;;;5109014;28;20040;-77
2022/12/10 06:32:32;;;;;;;26.15;13.45;;;-2.40;99.90;;;;;;5109310;28;20040;-78
2022/12/10 06:34:57;;;;;;;25.23;11.48;;;-2.40;99.90;;;;;;5092465;28;20044;-77
2022/12/10 06:37:23;;;;;;;29.25;13.43;;;-2.40;99.90;;;;;;5109901;28;20044;-78
2022/12/10 06:39:53;;;;;;;29.67;13.30;;;-2.30;99.90;;;;;;5075906;28;20048;-78
2022/12/10 06:42:19;;;;;;;27.48;14.23;;;-2.40;99.90;;;;;;5075628;28;20047;-77
2022/12/10 06:44:45;;;;;;;24.15;13.55;;;-2.40;99.90;;;;;;5109429;28;20054;-78
2022/12/10 06:47:11;;;;;;;31.58;12.82;;;-2.40;99.90;;;;;;5074900;28;20127;-78
2022/12/10 06:49:37;;;;;;;39.33;12.70;;;-2.40;99.90;;;;;;5108966;28;20546;-78
2022/12/10 06:52:03;;;;;;;25.45;12.27;;;-2.40;99.90;;;;;;5091625;28;20063;-78
2022/12/10 06:54:29;;;;;;;21.85;12.15;;;-2.40;99.90;;;;;;5108885;28;20036;-78
2022/12/10 06:56:55;;;;;;;26.35;11.60;;;-2.40;99.90;;;;;;5108566;28;20044;-78
2022/12/10 06:59:21;;;;;;;35.25;15.82;;;-2.40;99.90;;;;;;5108990;28;20123;-78
2022/12/10 07:01:47;;;;;;;31.80;15.02;;;-2.40;99.90;;;;;;5091731;28;20054;-78
2022/12/10 07:04:13;;;;;;;26.45;13.82;;;-2.40;99.90;;;;;;5110378;28;20048;-79
2022/12/10 07:06:39;;;;;;;26.50;13.50;;;-2.40;99.90;;;;;;5109214;28;20051;-78
2022/12/10 07:09:04;;;;;;;29.65;14.52;;;-2.40;99.90;;;;;;5074465;28;20032;-78
2022/12/10 07:11:30;;;;;;;28.20;13.35;;;-2.30;99.90;;;;;;5109029;28;20124;-78
2022/12/10 07:13:57;;;;;;;28.27;14.90;;;-2.50;99.90;;;;;;5111004;28;20457;-78
2022/12/10 07:16:26;;;;;;;29.00;13.88;;;-2.50;99.90;;;;;;5112437;28;20035;-78
2022/12/10 07:18:54;;;;;;;32.38;14.13;;;-2.50;99.90;;;;;;5078450;28;20059;-78
2022/12/10 07:21:28;;;;;;;24.23;12.68;;;-2.50;99.90;;;;;;5078225;28;20047;-78
2022/12/10 07:23:57;;;;;;;27.00;13.77;;;-2.50;99.90;;;;;;5095276;28;20505;-78
2022/12/10 07:26:29;;;;;;;26.27;12.30;;;-2.50;99.90;;;;;;5111873;28;20108;-79
2022/12/10 07:28:54;;;;;;;27.80;13.65;;;-2.50;99.90;;;;;;5077977;28;20121;-78
2022/12/10 07:31:21;;;;;;;37.40;15.02;;;-2.50;99.90;;;;;;5112329;28;20483;-79
2022/12/10 07:33:47;;;;;;;31.15;13.55;;;-2.50;99.90;;;;;;5095014;28;20122;-79
2022/12/10 07:36:14;;;;;;;29.73;14.43;;;-2.50;99.90;;;;;;5111830;28;20036;-79
2022/12/10 07:38:40;;;;;;;27.40;13.63;;;-2.50;99.90;;;;;;5077772;28;20491;-80
2022/12/10 07:41:08;;;;;;;27.02;14.05;;;-2.50;99.90;;;;;;5111816;28;20043;-78
2022/12/10 07:43:35;;;;;;;30.13;15.20;;;-2.50;99.90;;;;;;5077828;28;20082;-78
2022/12/10 07:46:11;;;;;;;22.40;12.88;;;-2.50;99.90;;;;;;5077958;28;20127;-77
2022/12/10 07:48:38;;;;;;;27.20;13.55;;;-1.40;99.90;;;;;;5077559;28;20464;-79
2022/12/10 07:51:04;;;;;;;25.98;11.75;;;-2.50;99.90;;;;;;5111492;28;20058;-80
2022/12/10 07:53:31;;;;;;;34.53;15.15;;;-2.50;99.90;;;;;;5111375;28;20106;-79
2022/12/10 07:55:57;;;;;;;24.58;14.48;;;-2.50;99.90;;;;;;5094542;28;20131;-80
2022/12/10 07:58:22;;;;;;;23.52;13.50;;;-2.50;99.90;;;;;;5077762;28;20071;-80
2022/12/10 08:00:48;;;;;;;39.80;15.90;;;-2.50;99.90;;;;;;5094484;28;20046;-78
2022/12/10 08:03:14;;;;;;;31.30;14.40;;;-2.50;99.90;;;;;;5111556;28;20062;-78
2022/12/10 08:05:39;;;;;;;25.50;15.57;;;-2.50;99.90;;;;;;5077567;28;20048;-78
2022/12/10 08:08:05;;;;;;;30.45;13.23;;;-2.50;99.90;;;;;;5111173;28;20036;-78
2022/12/10 08:10:34;;;;;;;26.42;12.93;;;-2.50;99.90;;;;;;5077324;28;20123;-79
2022/12/10 08:12:59;;;;;;;29.38;13.85;;;-2.50;99.90;;;;;;5077119;28;20170;-78
2022/12/10 08:15:25;;;;;;;27.63;12.60;;;-2.50;99.90;;;;;;5077101;28;20126;-79
2022/12/10 08:17:51;;;;;;;30.13;14.70;;;-2.40;99.90;;;;;;5110951;28;20040;-78
2022/12/10 08:20:16;;;;;;;28.52;13.18;;;-2.40;99.90;;;;;;5110798;28;20392;-78
2022/12/10 08:22:42;;;;;;;39.03;16.17;;;-2.40;99.90;;;;;;5110898;28;20040;-78
2022/12/10 08:25:07;;;;;;;27.42;16.75;;;-2.40;99.90;;;;;;5109914;28;20096;-79
2022/12/10 08:27:33;;;;;;;36.03;13.43;;;-1.10;99.90;;;;;;5077055;28;20044;-79
2022/12/10 08:29:59;;;;;;;31.25;14.90;;;-2.40;99.90;;;;;;5093479;28;20043;-78
2022/12/10 08:32:24;;;;;;;33.50;15.43;;;-2.40;99.90;;;;;;5110675;28;20118;-79
2022/12/10 08:34:50;;;;;;;25.17;13.00;;;-2.40;99.90;;;;;;5093440;28;20089;-79
2022/12/10 08:37:15;;;;;;;22.08;12.88;;;-2.40;99.90;;;;;;5093371;28;20716;-78
2022/12/10 08:39:41;;;;;;;24.55;14.50;;;-2.30;99.90;;;;;;5110519;28;20052;-78
2022/12/10 08:42:07;;;;;;;29.90;16.80;;;-2.30;99.90;;;;;;5110259;28;20083;-80
2022/12/10 08:44:32;;;;;;;36.45;14.77;;;-2.30;99.90;;;;;;5110246;28;20036;-79
2022/12/10 08:46:58;;;;;;;34.10;15.60;;;-2.30;99.90;;;;;;5093043;28;20403;-79
2022/12/10 08:49:23;;;;;;;31.33;15.43;;;-2.30;99.90;;;;;;5076196;28;20080;-78
2022/12/10 08:51:49;;;;;;;26.55;14.13;;;-2.20;99.90;;;;;;5110313;28;20488;-78
2022/12/10 08:54:14;;;;;;;30.63;15.40;;;-2.20;99.90;;;;;;5109996;28;20036;-79
2022/12/10 08:56:40;;;;;;;27.95;13.57;;;-2.10;99.90;;;;;;5110135;28;20075;-80
2022/12/10 08:59:06;;;;;;;24.38;11.95;;;-2.10;99.90;;;;;;5110317;28;20036;-79
2022/12/10 09:01:32;;;;;;;30.50;15.10;;;-2.00;99.90;;;;;;5110306;28;20047;-78
2022/12/10 09:03:58;;;;;;;36.53;14.07;;;-2.00;99.90;;;;;;5092780;28;20547;-79
2022/12/10 09:06:24;;;;;;;29.02;14.85;;;-1.90;99.90;;;;;;5076021;28;20402;-79
2022/12/10 09:08:50;;;;;;;24.17;13.07;;;-1.90;99.90;;;;;;5092813;28;20044;-79
2022/12/10 09:11:27;;;;;;;34.00;15.00;;;-1.80;99.90;;;;;;5110138;28;20126;-79
2022/12/10 09:13:53;;;;;;;25.35;14.07;;;-1.80;99.90;;;;;;5093050;28;20032;-79
2022/12/10 09:16:19;;;;;;;39.05;15.35;;;-1.70;99.90;;;;;;5110080;28;20047;-79
2022/12/10 09:18:45;;;;;;;28.67;14.50;;;-1.70;99.90;;;;;;5075987;28;20105;-79
2022/12/10 09:21:14;;;;;;;33.05;14.32;;;-1.60;99.90;;;;;;5109944;28;20101;-79
2022/12/10 09:23:40;;;;;;;40.03;15.10;;;-1.60;99.90;;;;;;5075604;28;20047;-77
2022/12/10 09:26:12;;;;;;;35.67;13.13;;;-1.50;99.90;;;;;;5075715;28;20051;-80
2022/12/10 09:28:38;;;;;;;39.22;16.52;;;-1.40;99.90;;;;;;5109588;28;20036;-80
2022/12/10 09:31:05;;;;;;;27.77;13.40;;;-1.30;99.90;;;;;;5093096;28;20055;-79
2022/12/10 09:33:31;;;;;;;33.83;15.05;;;-1.20;99.90;;;;;;5075776;28;20035;-79
2022/12/10 09:35:57;;;;;;;36.65;13.45;;;-1.10;99.90;;;;;;5092560;28;20071;-79
2022/12/10 09:38:23;;;;;;;35.85;15.32;;;-1.00;99.90;;;;;;5109777;28;20055;-79
2022/12/10 09:41:18;;;;;;;36.80;15.80;;;-1.00;99.90;;;;;;5109524;28;20062;-79
2022/12/10 09:43:57;;;;;;;36.03;14.30;;;-1.00;99.90;;;;;;5074607;28;20568;-79
2022/12/10 09:46:44;;;;;;;33.08;13.57;;;-1.00;99.90;;;;;;5109842;28;20134;-79
2022/12/10 09:49:37;;;;;;;29.38;14.93;;;-1.00;99.90;;;;;;5092034;28;20040;-79
2022/12/10 09:52:06;;;;;;;24.60;11.43;;;-0.90;99.90;;;;;;5109308;28;20514;-80
2022/12/10 09:54:36;;;;;;;27.02;14.85;;;-0.90;99.90;;;;;;5109148;28;20040;-80
2022/12/10 09:57:05;;;;;;;39.40;16.35;;;-0.80;99.90;;;;;;5092159;28;20043;-80
2022/12/10 09:59:36;;;;;;;32.78;13.85;;;-0.80;99.90;;;;;;5109038;28;20453;-81
2022/12/10 10:02:20;;;;;;;31.45;13.07;;;-0.70;99.90;;;;;;5109174;28;20040;-81
2022/12/10 10:04:48;;;;;;;29.25;13.57;;;-0.10;99.90;;;;;;5092104;28;20457;-81
2022/12/10 10:07:22;;;;;;;30.65;14.10;;;-0.60;99.90;;;;;;5075095;28;20082;-82
2022/12/10 10:09:48;;;;;;;27.23;12.20;;;-0.50;99.90;;;;;;5108884;28;20036;-80
2022/12/10 10:12:14;;;;;;;31.88;13.52;;;-0.50;99.90;;;;;;5092075;28;20043;-81
2022/12/10 10:14:42;;;;;;;32.53;14.25;;;-0.50;99.90;;;;;;5075077;28;20039;-80
2022/12/10 10:17:31;;;;;;;37.55;15.70;;;-0.70;99.90;;;;;;5075924;28;20036;-82
2022/12/10 10:19:57;;;;;;;29.88;13.68;;;-0.50;99.90;;;;;;5094690;28;20126;-81
2022/12/10 10:22:23;;;;;;;31.45;15.32;;;-0.60;99.90;;;;;;5111219;28;20073;-83
2022/12/10 10:24:48;;;;;;;34.58;14.90;;;-0.50;99.90;;;;;;5109926;28;20040;-82
2022/12/10 10:27:19;;;;;;;30.08;14.00;;;-0.50;99.90;;;;;;5110127;28;20047;-82
2022/12/10 10:29:48;;;;;;;25.00;13.88;;;-0.50;99.90;;;;;;5109612;28;20032;-82
2022/12/10 10:32:18;;;;;;;33.20;14.88;;;-0.60;99.90;;;;;;5075266;28;20044;-83
2022/12/10 10:34:45;;;;;;;40.38;15.85;;;-0.60;99.90;;;;;;5093424;28;20510;-82
2022/12/10 10:37:25;;;;;;;31.42;15.38;;;-0.60;99.90;;;;;;5092055;28;20082;-79
2022/12/10 10:39:51;;;;;;;34.33;16.58;;;-0.30;99.90;;;;;;5074857;28;20063;-79
2022/12/10 10:42:42;;;;;;;29.15;13.88;;;-0.60;99.90;;;;;;5091944;28;20467;-81
2022/12/10 10:45:30;;;;;;;24.70;12.70;;;-0.60;99.90;;;;;;5109050;28;20036;-81
2022/12/10 10:48:04;;;;;;;28.08;13.57;;;-1.00;99.90;;;;;;5110107;28;20040;-80
2022/12/10 10:50:29;;;;;;;35.65;14.60;;;-0.70;99.90;;;;;;5114427;28;20055;-80
2022/12/10 10:52:55;;;;;;;33.22;13.93;;;-0.50;99.90;;;;;;5113125;28;20124;-80
2022/12/10 10:55:36;;;;;;;32.47;14.00;;;-0.60;99.90;;;;;;5096268;28;20402;-80
2022/12/10 10:58:01;;;;;;;32.13;14.27;;;-0.30;99.90;;;;;;5113239;28;20053;-79
2022/12/10 11:00:27;;;;;;;28.17;13.00;;;-0.60;99.90;;;;;;5096994;28;20491;-80
2022/12/10 11:02:53;;;;;;;30.67;15.95;;;-0.40;99.90;;;;;;5115072;28;20056;-80
2022/12/10 11:05:29;;;;;;;31.08;12.55;;;-0.60;99.90;;;;;;5080328;28;20040;-81
2022/12/10 11:08:04;;;;;;;36.47;14.57;;;-0.30;99.90;;;;;;5081552;28;20050;-80
2022/12/10 11:10:31;;;;;;;38.50;16.67;;;-0.50;99.90;;;;;;5113208;28;20064;-81
2022/12/10 11:13:17;;;;;;;31.85;14.18;;;-0.60;99.90;;;;;;5096038;28;20571;-80
2022/12/10 11:15:44;;;;;;;26.15;12.65;;;-0.40;99.90;;;;;;5078676;28;20464;-80
2022/12/10 11:18:28;;;;;;;30.52;12.48;;;-0.30;99.90;;;;;;5113312;28;20048;-81
2022/12/10 11:21:06;;;;;;;28.92;12.95;;;-0.50;99.90;;;;;;5097576;28;20061;-84
2022/12/10 11:23:38;;;;;;;40.40;15.57;;;-0.20;99.90;;;;;;5081548;28;20075;-82
2022/12/10 11:26:30;;;;;;;39.60;14.63;;;-0.10;99.90;;;;;;5115564;28;20032;-82
2022/12/10 11:29:08;;;;;;;26.50;12.55;;;-0.40;99.90;;;;;;5115269;28;20384;-82
2022/12/10 11:31:51;;;;;;;33.03;13.52;;;-0.30;99.90;;;;;;5080599;28;20032;-81
2022/12/10 11:34:40;;;;;;;26.52;12.52;;;-0.30;99.90;;;;;;5095167;28;20048;-83
2022/12/10 11:37:25;;;;;;;24.17;11.75;;;-0.30;99.90;;;;;;5094432;28;20095;-82
2022/12/10 11:40:02;;;;;;;26.52;12.15;;;-0.30;99.90;;;;;;5094901;28;20036;-86
2022/12/10 11:42:48;;;;;;;35.03;15.00;;;-0.30;99.90;;;;;;5112086;28;20044;-85
2022/12/10 11:45:34;;;;;;;28.67;14.32;;;-0.30;99.90;;;;;;5111991;28;20036;-83
2022/12/10 11:48:12;;;;;;;34.45;13.20;;;-0.20;99.90;;;;;;5111689;28;20169;-83
2022/12/10 11:50:45;;;;;;;29.30;14.07;;;-0.20;99.90;;;;;;5111907;28;20040;-86
2022/12/10 11:53:32;;;;;;;29.95;12.88;;;-0.20;99.90;;;;;;5078377;28;20032;-84
2022/12/10 11:56:13;;;;;;;38.15;13.85;;;-0.30;99.90;;;;;;5094714;28;20142;-83
2022/12/10 11:58:57;;;;;;;27.65;12.70;;;-0.20;99.90;;;;;;5111237;28;20044;-85
2022/12/10 12:01:28;;;;;;;25.33;12.50;;;-0.20;99.90;;;;;;5111599;28;20130;-85
2022/12/10 12:04:12;;;;;;;35.65;13.13;;;-0.20;99.90;;;;;;5111521;28;20181;-82
2022/12/10 12:06:52;;;;;;;32.15;13.00;;;-0.20;99.90;;;;;;5111846;28;20074;-84
2022/12/10 12:09:51;;;;;;;25.15;13.48;;;-0.10;99.90;;;;;;5111306;28;20043;-83
2022/12/10 12:12:22;;;;;;;33.40;12.75;;;-0.20;99.90;;;;;;5112020;28;20548;-83
2022/12/10 12:15:02;;;;;;;22.80;11.65;;;-0.20;99.90;;;;;;5111467;28;20100;-83
2022/12/10 12:17:32;;;;;;;32.67;12.75;;;-0.20;99.90;;;;;;5077553;28;20040;-84
2022/12/10 12:20:02;;;;;;;27.38;12.77;;;-0.20;99.90;;;;;;5077296;28;20047;-83
2022/12/10 12:22:37;;;;;;;27.27;12.63;;;-0.30;99.90;;;;;;5095040;28;20044;-83
2022/12/10 12:25:16;;;;;;;34.15;14.27;;;-0.20;99.90;;;;;;5078251;28;20403;-82
2022/12/10 12:27:56;;;;;;;30.63;14.40;;;-0.20;99.90;;;;;;5078046;28;20043;-83
2022/12/10 12:30:22;;;;;;;30.58;13.05;;;-0.30;99.90;;;;;;5111476;28;20391;-83
2022/12/10 12:32:54;;;;;;;29.25;13.27;;;-0.30;99.90;;;;;;5094400;28;20036;-83
2022/12/10 12:35:21;;;;;;;;;;;-0.30;99.90;;;;;;5111922;28;20495;-84
2022/12/10 12:38:30;;;;;;;26.98;12.43;;;-0.30;99.90;;;;;;5111387;28;19932;-78
2022/12/10 12:41:10;;;;;;;30.67;11.90;;;-0.30;99.90;;;;;;5075622;28;20079;-78
2022/12/10 12:43:36;;;;;;;30.15;13.48;;;-0.40;99.90;;;;;;5112212;28;20172;-77
2022/12/10 12:46:13;;;;;;;30.52;13.57;;;-0.40;99.90;;;;;;5111614;28;20548;-83
2022/12/10 12:48:53;;;;;;;30.17;13.00;;;-0.40;99.90;;;;;;5112327;28;20059;-82
2022/12/10 12:51:34;;;;;;;30.45;12.57;;;-0.50;99.90;;;;;;5111864;28;20032;-82
2022/12/10 12:54:00;;;;;;;33.55;12.13;;;-0.50;99.90;;;;;;5095497;28;20090;-81